FAWC Weather

FACT METAR/TAF

[source: ADDS]
METAR
FACT 182300Z 29007KT 9999 FEW020 BKN040 14/11 Q1014 NOSIG =
TAF
TAF FACT 182200Z 1900/2006 32012KT 9999 SCT015 BKN030 BECMG 1900/1902 24008KT FM190700 24008KT 9999 SCT030 BECMG 1922/1924 33008KT TX19/1912Z TN08/2005Z =
SR / SS: 03:57 / 17:01 UTC (FAWC 2017-10-19)

Polls

Flying Interest Is?